sensor_id;sensor_type;location;lat;lon;timestamp;pressure;altitude;pressure_sealevel;temperature;humidity
62524;BME280;53689;56.878;60.672;2023-10-09T00:01:39;95528.94;;;18.50;37.86
62524;BME280;53689;56.878;60.672;2023-10-09T00:04:07;95538.88;;;18.50;37.81
62524;BME280;53689;56.878;60.672;2023-10-09T00:06:34;95533.59;;;18.55;37.87
62524;BME280;53689;56.878;60.672;2023-10-09T00:09:04;95541.22;;;18.46;38.11
62524;BME280;53689;56.878;60.672;2023-10-09T00:11:32;95534.06;;;18.35;37.97
62524;BME280;53689;56.878;60.672;2023-10-09T00:14:00;95530.56;;;18.51;38.48
62524;BME280;53689;56.878;60.672;2023-10-09T00:16:28;95526.75;;;18.64;37.99
62524;BME280;53689;56.878;60.672;2023-10-09T00:18:55;95520.75;;;18.74;38.19
62524;BME280;53689;56.878;60.672;2023-10-09T00:21:23;95518.31;;;18.55;38.06
62524;BME280;53689;56.878;60.672;2023-10-09T00:23:51;95520.91;;;18.67;37.74
62524;BME280;53689;56.878;60.672;2023-10-09T00:26:20;95520.00;;;18.79;37.84
62524;BME280;53689;56.878;60.672;2023-10-09T00:28:52;95503.28;;;18.71;38.08
62524;BME280;53689;56.878;60.672;2023-10-09T00:31:21;95507.09;;;18.58;38.34
62524;BME280;53689;56.878;60.672;2023-10-09T00:33:49;95516.00;;;18.81;37.08
62524;BME280;53689;56.878;60.672;2023-10-09T00:36:16;95513.09;;;18.83;37.12
62524;BME280;53689;56.878;60.672;2023-10-09T00:38:44;95501.72;;;18.76;37.49
62524;BME280;53689;56.878;60.672;2023-10-09T00:41:12;95499.63;;;18.61;37.56
62524;BME280;53689;56.878;60.672;2023-10-09T00:43:41;95508.28;;;19.02;36.69
62524;BME280;53689;56.878;60.672;2023-10-09T00:46:10;95511.28;;;18.89;36.73
62524;BME280;53689;56.878;60.672;2023-10-09T00:48:38;95504.16;;;18.77;37.14
62524;BME280;53689;56.878;60.672;2023-10-09T00:51:06;95506.59;;;18.62;37.08
62524;BME280;53689;56.878;60.672;2023-10-09T00:53:34;95502.22;;;18.72;36.98
62524;BME280;53689;56.878;60.672;2023-10-09T00:56:02;95505.91;;;18.49;36.88
62524;BME280;53689;56.878;60.672;2023-10-09T00:58:31;95497.47;;;17.94;38.27
62524;BME280;53689;56.878;60.672;2023-10-09T01:01:01;95483.91;;;18.13;37.68
62524;BME280;53689;56.878;60.672;2023-10-09T01:03:29;95487.78;;;18.39;37.28
62524;BME280;53689;56.878;60.672;2023-10-09T01:05:58;95489.72;;;18.61;37.31
62524;BME280;53689;56.878;60.672;2023-10-09T01:08:28;95493.13;;;18.74;37.03
62524;BME280;53689;56.878;60.672;2023-10-09T01:10:56;95495.72;;;18.68;36.94
62524;BME280;53689;56.878;60.672;2023-10-09T01:13:24;95486.22;;;18.61;36.55
62524;BME280;53689;56.878;60.672;2023-10-09T01:15:53;95487.03;;;18.78;36.87
62524;BME280;53689;56.878;60.672;2023-10-09T01:18:22;95480.84;;;18.78;37.53
62524;BME280;53689;56.878;60.672;2023-10-09T01:20:50;95482.03;;;18.87;37.64
62524;BME280;53689;56.878;60.672;2023-10-09T01:23:19;95478.78;;;18.85;37.30
62524;BME280;53689;56.878;60.672;2023-10-09T01:25:47;95479.84;;;18.84;37.72
62524;BME280;53689;56.878;60.672;2023-10-09T01:28:15;95475.13;;;18.91;37.60
62524;BME280;53689;56.878;60.672;2023-10-09T01:30:43;95487.75;;;19.13;37.03
62524;BME280;53689;56.878;60.672;2023-10-09T01:33:11;95482.84;;;18.88;37.53
62524;BME280;53689;56.878;60.672;2023-10-09T01:35:39;95494.31;;;18.83;37.64
62524;BME280;53689;56.878;60.672;2023-10-09T01:38:06;95491.09;;;18.81;36.99
62524;BME280;53689;56.878;60.672;2023-10-09T01:40:36;95504.91;;;19.12;36.38
62524;BME280;53689;56.878;60.672;2023-10-09T01:43:03;95516.66;;;18.89;36.99
62524;BME280;53689;56.878;60.672;2023-10-09T01:45:32;95507.81;;;18.88;37.48
62524;BME280;53689;56.878;60.672;2023-10-09T01:48:00;95502.34;;;19.22;36.05
62524;BME280;53689;56.878;60.672;2023-10-09T01:50:28;95497.19;;;19.38;36.18
62524;BME280;53689;56.878;60.672;2023-10-09T01:52:57;95500.84;;;19.32;36.29
62524;BME280;53689;56.878;60.672;2023-10-09T01:55:24;95520.22;;;19.11;37.00
62524;BME280;53689;56.878;60.672;2023-10-09T01:57:55;95540.91;;;18.99;37.01
62524;BME280;53689;56.878;60.672;2023-10-09T02:00:26;95555.56;;;19.31;37.28
62524;BME280;53689;56.878;60.672;2023-10-09T02:02:53;95551.75;;;19.49;37.01
62524;BME280;53689;56.878;60.672;2023-10-09T02:05:21;95560.13;;;19.30;37.70
62524;BME280;53689;56.878;60.672;2023-10-09T02:07:49;95560.72;;;19.15;37.98
62524;BME280;53689;56.878;60.672;2023-10-09T02:10:18;95550.44;;;19.29;37.39
62524;BME280;53689;56.878;60.672;2023-10-09T02:12:47;95541.91;;;19.10;38.14
62524;BME280;53689;56.878;60.672;2023-10-09T02:15:17;95542.78;;;19.16;37.43
62524;BME280;53689;56.878;60.672;2023-10-09T02:17:44;95538.41;;;19.09;37.77
62524;BME280;53689;56.878;60.672;2023-10-09T02:20:12;95536.28;;;19.56;36.90
62524;BME280;53689;56.878;60.672;2023-10-09T02:22:40;95525.19;;;19.25;37.45
62524;BME280;53689;56.878;60.672;2023-10-09T02:25:08;95533.72;;;19.44;36.59
62524;BME280;53689;56.878;60.672;2023-10-09T02:27:35;95535.47;;;19.11;37.79
62524;BME280;53689;56.878;60.672;2023-10-09T02:30:04;95529.69;;;19.41;37.62
62524;BME280;53689;56.878;60.672;2023-10-09T02:32:33;95539.03;;;19.17;38.08
62524;BME280;53689;56.878;60.672;2023-10-09T02:35:01;95538.41;;;19.09;37.80
62524;BME280;53689;56.878;60.672;2023-10-09T02:37:29;95542.47;;;19.12;37.50
62524;BME280;53689;56.878;60.672;2023-10-09T02:39:56;95543.53;;;18.94;37.83
62524;BME280;53689;56.878;60.672;2023-10-09T02:42:24;95546.41;;;19.26;37.51
62524;BME280;53689;56.878;60.672;2023-10-09T02:44:52;95543.34;;;19.18;38.07
62524;BME280;53689;56.878;60.672;2023-10-09T02:47:21;95545.78;;;19.19;37.35
62524;BME280;53689;56.878;60.672;2023-10-09T02:49:50;95558.56;;;19.12;37.30
62524;BME280;53689;56.878;60.672;2023-10-09T02:52:19;95557.44;;;19.08;37.62
62524;BME280;53689;56.878;60.672;2023-10-09T02:54:47;95564.50;;;18.80;37.94
62524;BME280;53689;56.878;60.672;2023-10-09T02:57:15;95549.00;;;18.82;37.79
62524;BME280;53689;56.878;60.672;2023-10-09T02:59:43;95541.50;;;19.01;38.35
62524;BME280;53689;56.878;60.672;2023-10-09T03:02:10;95542.88;;;19.04;38.25
62524;BME280;53689;56.878;60.672;2023-10-09T03:04:38;95552.06;;;18.91;38.58
62524;BME280;53689;56.878;60.672;2023-10-09T03:07:08;95550.75;;;18.93;37.96
62524;BME280;53689;56.878;60.672;2023-10-09T03:09:36;95546.53;;;18.97;38.09
62524;BME280;53689;56.878;60.672;2023-10-09T03:12:05;95545.47;;;18.81;38.93
62524;BME280;53689;56.878;60.672;2023-10-09T03:14:36;95543.75;;;19.09;38.35
62524;BME280;53689;56.878;60.672;2023-10-09T03:17:05;95541.91;;;18.93;39.28
62524;BME280;53689;56.878;60.672;2023-10-09T03:19:33;95549.69;;;18.94;37.75
62524;BME280;53689;56.878;60.672;2023-10-09T03:22:01;95562.63;;;18.97;38.48
62524;BME280;53689;56.878;60.672;2023-10-09T03:24:30;95551.00;;;19.09;38.32
62524;BME280;53689;56.878;60.672;2023-10-09T03:26:58;95558.63;;;19.00;38.92
62524;BME280;53689;56.878;60.672;2023-10-09T03:29:26;95549.00;;;18.82;37.80
62524;BME280;53689;56.878;60.672;2023-10-09T03:31:53;95550.47;;;18.55;38.57
62524;BME280;53689;56.878;60.672;2023-10-09T03:34:21;95550.03;;;18.64;38.36
62524;BME280;53689;56.878;60.672;2023-10-09T03:36:49;95557.28;;;18.63;38.41
62524;BME280;53689;56.878;60.672;2023-10-09T03:39:16;95556.91;;;18.54;38.56
62524;BME280;53689;56.878;60.672;2023-10-09T03:41:46;95556.22;;;18.64;38.60
62524;BME280;53689;56.878;60.672;2023-10-09T03:44:13;95564.13;;;18.54;38.91
62524;BME280;53689;56.878;60.672;2023-10-09T03:46:41;95568.97;;;18.57;38.54
62524;BME280;53689;56.878;60.672;2023-10-09T03:49:09;95567.34;;;18.56;37.67
62524;BME280;53689;56.878;60.672;2023-10-09T03:51:36;95575.66;;;18.54;38.36
62524;BME280;53689;56.878;60.672;2023-10-09T03:54:05;95583.69;;;18.54;38.77
62524;BME280;53689;56.878;60.672;2023-10-09T03:56:33;95566.41;;;18.45;37.78
62524;BME280;53689;56.878;60.672;2023-10-09T03:59:03;95563.53;;;18.52;40.01
62524;BME280;53689;56.878;60.672;2023-10-09T04:01:31;95560.69;;;18.58;38.34
62524;BME280;53689;56.878;60.672;2023-10-09T04:04:00;95569.69;;;18.52;38.11
62524;BME280;53689;56.878;60.672;2023-10-09T04:06:29;95567.84;;;18.53;38.31
62524;BME280;53689;56.878;60.672;2023-10-09T04:08:57;95551.03;;;18.57;40.31
62524;BME280;53689;56.878;60.672;2023-10-09T04:11:26;95553.38;;;18.54;38.24
62524;BME280;53689;56.878;60.672;2023-10-09T04:13:54;95563.38;;;18.58;40.07
62524;BME280;53689;56.878;60.672;2023-10-09T04:16:23;95566.78;;;18.54;38.85
62524;BME280;53689;56.878;60.672;2023-10-09T04:18:51;95563.78;;;18.50;39.67
62524;BME280;53689;56.878;60.672;2023-10-09T04:21:19;95567.19;;;18.46;38.47
62524;BME280;53689;56.878;60.672;2023-10-09T04:23:47;95569.53;;;18.42;39.71
62524;BME280;53689;56.878;60.672;2023-10-09T04:26:14;95568.47;;;18.43;39.08
62524;BME280;53689;56.878;60.672;2023-10-09T04:28:42;95576.78;;;18.41;38.84
62524;BME280;53689;56.878;60.672;2023-10-09T04:31:10;95584.56;;;18.43;39.08
62524;BME280;53689;56.878;60.672;2023-10-09T04:33:39;95588.44;;;18.35;39.42
62524;BME280;53689;56.878;60.672;2023-10-09T04:36:09;95582.03;;;18.36;39.97
62524;BME280;53689;56.878;60.672;2023-10-09T04:38:37;95597.06;;;18.37;38.92
62524;BME280;53689;56.878;60.672;2023-10-09T04:41:05;95604.13;;;18.43;39.34
62524;BME280;53689;56.878;60.672;2023-10-09T04:43:33;95597.81;;;19.01;37.56
62524;BME280;53689;56.878;60.672;2023-10-09T04:46:01;95603.50;;;19.05;38.46
62524;BME280;53689;56.878;60.672;2023-10-09T04:48:28;95593.84;;;19.65;37.01
62524;BME280;53689;56.878;60.672;2023-10-09T04:50:59;95597.00;;;19.01;39.50
62524;BME280;53689;56.878;60.672;2023-10-09T04:53:26;95604.22;;;18.83;39.61
62524;BME280;53689;56.878;60.672;2023-10-09T04:55:55;95601.47;;;18.61;39.45
62524;BME280;53689;56.878;60.672;2023-10-09T04:58:23;95599.03;;;18.59;38.49
62524;BME280;53689;56.878;60.672;2023-10-09T05:04:43;95606.19;;;19.89;36.17
62524;BME280;53689;56.878;60.672;2023-10-09T05:07:13;95613.00;;;19.74;35.81
62524;BME280;53689;56.878;60.672;2023-10-09T05:09:40;95618.97;;;19.81;35.57
62524;BME280;53689;56.878;60.672;2023-10-09T05:12:08;95612.88;;;19.02;39.56
62524;BME280;53689;56.878;60.672;2023-10-09T05:14:37;95606.66;;;18.84;39.50
62524;BME280;53689;56.878;60.672;2023-10-09T05:17:06;95604.06;;;18.72;37.66
62524;BME280;53689;56.878;60.672;2023-10-09T05:19:33;95612.66;;;18.92;37.97
62524;BME280;53689;56.878;60.672;2023-10-09T05:22:01;95618.81;;;19.66;35.87
62524;BME280;53689;56.878;60.672;2023-10-09T05:24:30;95622.03;;;18.89;36.42
62524;BME280;53689;56.878;60.672;2023-10-09T05:26:58;95617.31;;;18.62;37.23
62524;BME280;53689;56.878;60.672;2023-10-09T05:29:26;95625.00;;;18.76;37.54
62524;BME280;53689;56.878;60.672;2023-10-09T05:31:53;95617.88;;;18.98;36.77
62524;BME280;53689;56.878;60.672;2023-10-09T05:34:21;95611.22;;;19.18;36.56
62524;BME280;53689;56.878;60.672;2023-10-09T05:36:49;95634.44;;;18.61;37.38
62524;BME280;53689;56.878;60.672;2023-10-09T05:39:16;95632.09;;;18.65;37.57
62524;BME280;53689;56.878;60.672;2023-10-09T05:41:46;95635.00;;;18.63;38.55
62524;BME280;53689;56.878;60.672;2023-10-09T05:44:14;95625.34;;;18.79;37.70
62524;BME280;53689;56.878;60.672;2023-10-09T05:46:42;95627.94;;;18.91;36.87
62524;BME280;53689;56.878;60.672;2023-10-09T05:49:10;95629.88;;;19.30;35.72
62524;BME280;53689;56.878;60.672;2023-10-09T05:51:39;95629.41;;;18.99;36.98
62524;BME280;53689;56.878;60.672;2023-10-09T05:54:07;95629.75;;;20.04;35.78
62524;BME280;53689;56.878;60.672;2023-10-09T05:56:35;95626.41;;;19.52;36.10
62524;BME280;53689;56.878;60.672;2023-10-09T05:59:05;95631.28;;;19.77;35.25
62524;BME280;53689;56.878;60.672;2023-10-09T06:01:32;95635.84;;;19.77;35.66
62524;BME280;53689;56.878;60.672;2023-10-09T06:04:00;95629.78;;;19.64;35.81
62524;BME280;53689;56.878;60.672;2023-10-09T06:06:30;95627.41;;;19.46;36.38
62524;BME280;53689;56.878;60.672;2023-10-09T06:08:59;95622.53;;;19.43;35.80
62524;BME280;53689;56.878;60.672;2023-10-09T06:11:30;95635.16;;;18.74;37.42
62524;BME280;53689;56.878;60.672;2023-10-09T06:13:59;95633.81;;;19.05;37.42
62524;BME280;53689;56.878;60.672;2023-10-09T06:16:28;95616.41;;;19.25;36.55
62524;BME280;53689;56.878;60.672;2023-10-09T06:18:56;95623.56;;;19.19;37.01
62524;BME280;53689;56.878;60.672;2023-10-09T06:21:23;95621.78;;;19.08;36.90
62524;BME280;53689;56.878;60.672;2023-10-09T06:23:51;95636.50;;;19.05;38.12
62524;BME280;53689;56.878;60.672;2023-10-09T06:26:19;95633.31;;;19.25;37.80
62524;BME280;53689;56.878;60.672;2023-10-09T06:28:47;95633.06;;;19.27;37.52
62524;BME280;53689;56.878;60.672;2023-10-09T06:31:15;95642.25;;;19.53;36.58
62524;BME280;53689;56.878;60.672;2023-10-09T06:33:44;95649.19;;;19.49;37.81
62524;BME280;53689;56.878;60.672;2023-10-09T06:36:12;95645.19;;;19.52;37.79
62524;BME280;53689;56.878;60.672;2023-10-09T06:38:39;95651.91;;;19.72;37.36
62524;BME280;53689;56.878;60.672;2023-10-09T06:41:07;95646.41;;;19.61;36.51
62524;BME280;53689;56.878;60.672;2023-10-09T06:43:36;95648.63;;;20.36;35.98
62524;BME280;53689;56.878;60.672;2023-10-09T06:46:03;95643.00;;;19.49;36.78
62524;BME280;53689;56.878;60.672;2023-10-09T06:48:31;95651.50;;;19.85;36.57
62524;BME280;53689;56.878;60.672;2023-10-09T06:51:04;95657.38;;;19.82;38.16
62524;BME280;53689;56.878;60.672;2023-10-09T06:53:32;95651.72;;;19.78;39.19
62524;BME280;53689;56.878;60.672;2023-10-09T06:55:59;95651.78;;;20.06;36.90
62524;BME280;53689;56.878;60.672;2023-10-09T06:58:27;95643.28;;;19.69;40.10
62524;BME280;53689;56.878;60.672;2023-10-09T07:00:56;95646.91;;;20.25;36.03
62524;BME280;53689;56.878;60.672;2023-10-09T07:03:23;95662.13;;;20.42;35.95
62524;BME280;53689;56.878;60.672;2023-10-09T07:05:52;95699.56;;;20.26;36.21
62524;BME280;53689;56.878;60.672;2023-10-09T07:08:31;95713.22;;;19.80;35.58
62524;BME280;53689;56.878;60.672;2023-10-09T07:11:00;95733.25;;;19.55;35.89
62524;BME280;53689;56.878;60.672;2023-10-09T07:13:28;95726.44;;;19.87;35.03
62524;BME280;53689;56.878;60.672;2023-10-09T07:15:55;95723.22;;;19.67;35.22
62524;BME280;53689;56.878;60.672;2023-10-09T07:18:24;95723.41;;;19.61;35.78
62524;BME280;53689;56.878;60.672;2023-10-09T07:20:51;95719.47;;;19.12;36.58
62524;BME280;53689;56.878;60.672;2023-10-09T07:23:19;95717.66;;;19.35;37.75
62524;BME280;53689;56.878;60.672;2023-10-09T07:25:48;95709.47;;;19.24;36.97
62524;BME280;53689;56.878;60.672;2023-10-09T07:28:16;95699.09;;;18.99;37.17
62524;BME280;53689;56.878;60.672;2023-10-09T07:30:44;95708.91;;;19.22;37.07
62524;BME280;53689;56.878;60.672;2023-10-09T07:33:12;95710.28;;;19.25;38.83
62524;BME280;53689;56.878;60.672;2023-10-09T07:35:42;95702.63;;;19.34;38.01
62524;BME280;53689;56.878;60.672;2023-10-09T07:38:10;95698.97;;;19.40;37.87
62524;BME280;53689;56.878;60.672;2023-10-09T07:40:39;95697.19;;;19.29;37.80
62524;BME280;53689;56.878;60.672;2023-10-09T07:43:09;95705.81;;;19.13;38.05
62524;BME280;53689;56.878;60.672;2023-10-09T07:45:37;95716.47;;;19.25;37.14
62524;BME280;53689;56.878;60.672;2023-10-09T07:48:05;95699.94;;;19.34;38.03
62524;BME280;53689;56.878;60.672;2023-10-09T07:50:37;95701.56;;;19.35;36.86
62524;BME280;53689;56.878;60.672;2023-10-09T07:53:08;95694.56;;;19.51;37.53
62524;BME280;53689;56.878;60.672;2023-10-09T07:55:39;95698.72;;;19.81;37.00
62524;BME280;53689;56.878;60.672;2023-10-09T07:58:09;95710.13;;;19.71;37.76
62524;BME280;53689;56.878;60.672;2023-10-09T08:00:36;95697.44;;;20.28;35.62
62524;BME280;53689;56.878;60.672;2023-10-09T08:03:04;95694.03;;;20.60;33.78
62524;BME280;53689;56.878;60.672;2023-10-09T08:05:32;95698.22;;;19.45;37.65
62524;BME280;53689;56.878;60.672;2023-10-09T08:08:01;95706.78;;;19.41;37.78
62524;BME280;53689;56.878;60.672;2023-10-09T08:10:40;95702.22;;;19.81;37.78
62524;BME280;53689;56.878;60.672;2023-10-09T08:13:10;95703.09;;;19.65;36.19
62524;BME280;53689;56.878;60.672;2023-10-09T08:15:37;95718.47;;;19.92;34.62
62524;BME280;53689;56.878;60.672;2023-10-09T08:18:06;95710.41;;;20.36;33.49
62524;BME280;53689;56.878;60.672;2023-10-09T08:20:34;95714.88;;;20.75;33.87
62524;BME280;53689;56.878;60.672;2023-10-09T08:23:02;95716.34;;;20.38;33.36
62524;BME280;53689;56.878;60.672;2023-10-09T08:25:30;95729.22;;;20.36;33.69
62524;BME280;53689;56.878;60.672;2023-10-09T08:27:59;95728.00;;;20.22;33.55
62524;BME280;53689;56.878;60.672;2023-10-09T08:30:29;95745.03;;;19.71;35.52
62524;BME280;53689;56.878;60.672;2023-10-09T08:32:57;95737.34;;;19.58;32.99
62524;BME280;53689;56.878;60.672;2023-10-09T08:35:27;95758.31;;;19.09;32.77
62524;BME280;53689;56.878;60.672;2023-10-09T08:37:56;95760.94;;;18.92;32.80
62524;BME280;53689;56.878;60.672;2023-10-09T08:40:31;95750.19;;;19.21;33.50
62524;BME280;53689;56.878;60.672;2023-10-09T08:43:08;95760.97;;;19.95;33.98
62524;BME280;53689;56.878;60.672;2023-10-09T08:45:39;95771.91;;;20.10;33.40
62524;BME280;53689;56.878;60.672;2023-10-09T08:48:08;95783.25;;;20.35;31.76
62524;BME280;53689;56.878;60.672;2023-10-09T08:50:40;95781.53;;;20.06;30.97
62524;BME280;53689;56.878;60.672;2023-10-09T08:53:08;95786.03;;;20.23;31.33
62524;BME280;53689;56.878;60.672;2023-10-09T08:55:36;95789.69;;;19.77;30.65
62524;BME280;53689;56.878;60.672;2023-10-09T08:58:05;95794.66;;;19.17;33.40
62524;BME280;53689;56.878;60.672;2023-10-09T09:00:34;95791.72;;;18.90;32.09
62524;BME280;53689;56.878;60.672;2023-10-09T09:03:03;95799.06;;;19.58;32.41
62524;BME280;53689;56.878;60.672;2023-10-09T09:05:31;95802.78;;;20.08;33.48
62524;BME280;53689;56.878;60.672;2023-10-09T09:07:59;95796.28;;;20.26;33.51
62524;BME280;53689;56.878;60.672;2023-10-09T09:10:28;95806.84;;;19.93;33.17
62524;BME280;53689;56.878;60.672;2023-10-09T09:12:56;95815.66;;;19.54;33.31
62524;BME280;53689;56.878;60.672;2023-10-09T09:15:27;95816.19;;;19.22;32.13
62524;BME280;53689;56.878;60.672;2023-10-09T09:18:05;95813.84;;;19.43;32.10
62524;BME280;53689;56.878;60.672;2023-10-09T09:20:35;95815.97;;;19.58;31.39
62524;BME280;53689;56.878;60.672;2023-10-09T09:23:03;95822.88;;;19.54;31.18
62524;BME280;53689;56.878;60.672;2023-10-09T09:25:40;95817.91;;;19.11;30.35
62524;BME280;53689;56.878;60.672;2023-10-09T09:28:09;95819.75;;;19.11;32.89
62524;BME280;53689;56.878;60.672;2023-10-09T09:30:37;95817.56;;;20.50;32.95
62524;BME280;53689;56.878;60.672;2023-10-09T09:33:19;95822.56;;;20.86;33.13
62524;BME280;53689;56.878;60.672;2023-10-09T09:35:57;95823.41;;;21.19;33.08
62524;BME280;53689;56.878;60.672;2023-10-09T09:38:26;95820.66;;;20.86;32.93
62524;BME280;53689;56.878;60.672;2023-10-09T09:40:56;95836.78;;;20.86;33.46
62524;BME280;53689;56.878;60.672;2023-10-09T09:43:25;95829.41;;;20.99;33.02
62524;BME280;53689;56.878;60.672;2023-10-09T09:45:55;95835.59;;;20.99;33.16
62524;BME280;53689;56.878;60.672;2023-10-09T09:48:28;95816.72;;;20.94;33.82
62524;BME280;53689;56.878;60.672;2023-10-09T09:50:57;95828.50;;;20.88;33.53
62524;BME280;53689;56.878;60.672;2023-10-09T09:53:25;95825.19;;;20.58;33.17
62524;BME280;53689;56.878;60.672;2023-10-09T09:55:54;95843.16;;;20.80;31.89
62524;BME280;53689;56.878;60.672;2023-10-09T09:58:23;95837.41;;;20.71;31.81
62524;BME280;53689;56.878;60.672;2023-10-09T10:00:52;95848.06;;;20.83;32.32
62524;BME280;53689;56.878;60.672;2023-10-09T10:03:23;95849.75;;;20.89;31.79
62524;BME280;53689;56.878;60.672;2023-10-09T10:05:56;95851.59;;;21.11;32.95
62524;BME280;53689;56.878;60.672;2023-10-09T10:08:25;95855.81;;;21.02;31.68
62524;BME280;53689;56.878;60.672;2023-10-09T10:10:54;95856.84;;;20.78;32.43
62524;BME280;53689;56.878;60.672;2023-10-09T10:16:32;95864.44;;;21.04;31.62
62524;BME280;53689;56.878;60.672;2023-10-09T10:19:21;95865.38;;;20.92;31.38
62524;BME280;53689;56.878;60.672;2023-10-09T10:21:50;95863.94;;;21.07;30.92
62524;BME280;53689;56.878;60.672;2023-10-09T10:24:41;95873.09;;;21.06;31.42
62524;BME280;53689;56.878;60.672;2023-10-09T10:27:16;95875.00;;;21.11;30.80
62524;BME280;53689;56.878;60.672;2023-10-09T10:29:46;95880.69;;;21.14;30.56
62524;BME280;53689;56.878;60.672;2023-10-09T10:32:14;95886.38;;;21.18;31.30
62524;BME280;53689;56.878;60.672;2023-10-09T10:34:54;95892.47;;;21.35;30.72
62524;BME280;53689;56.878;60.672;2023-10-09T10:37:34;95888.84;;;20.97;31.52
62524;BME280;53689;56.878;60.672;2023-10-09T10:40:02;95893.22;;;21.03;31.64
62524;BME280;53689;56.878;60.672;2023-10-09T10:42:30;95896.03;;;21.14;29.91
62524;BME280;53689;56.878;60.672;2023-10-09T10:44:57;95901.03;;;21.05;29.91
62524;BME280;53689;56.878;60.672;2023-10-09T10:47:27;95905.59;;;21.27;30.16
62524;BME280;53689;56.878;60.672;2023-10-09T10:49:55;95893.34;;;20.91;30.66
62524;BME280;53689;56.878;60.672;2023-10-09T10:52:26;95892.16;;;20.82;31.54
62524;BME280;53689;56.878;60.672;2023-10-09T10:55:07;95896.06;;;20.52;32.57
62524;BME280;53689;56.878;60.672;2023-10-09T10:57:36;95896.31;;;20.73;30.11
62524;BME280;53689;56.878;60.672;2023-10-09T11:00:11;95899.09;;;20.78;32.18
62524;BME280;53689;56.878;60.672;2023-10-09T11:02:43;95904.41;;;20.33;32.68
62524;BME280;53689;56.878;60.672;2023-10-09T11:05:11;95899.13;;;19.87;30.65
62524;BME280;53689;56.878;60.672;2023-10-09T11:07:41;95906.94;;;20.23;30.81
62524;BME280;53689;56.878;60.672;2023-10-09T11:10:09;95917.09;;;19.87;30.96
62524;BME280;53689;56.878;60.672;2023-10-09T11:12:44;95928.72;;;20.44;28.65
62524;BME280;53689;56.878;60.672;2023-10-09T11:15:13;95930.22;;;20.00;29.04
62524;BME280;53689;56.878;60.672;2023-10-09T11:17:41;95931.63;;;20.03;30.77
62524;BME280;53689;56.878;60.672;2023-10-09T11:20:09;95937.16;;;19.96;31.68
62524;BME280;53689;56.878;60.672;2023-10-09T11:22:37;95947.84;;;19.79;30.88
62524;BME280;53689;56.878;60.672;2023-10-09T11:25:08;95954.69;;;20.55;30.19
62524;BME280;53689;56.878;60.672;2023-10-09T11:27:35;95956.31;;;19.88;29.64
62524;BME280;53689;56.878;60.672;2023-10-09T11:30:04;95964.44;;;19.76;32.92
62524;BME280;53689;56.878;60.672;2023-10-09T11:32:36;95961.78;;;19.93;32.54
62524;BME280;53689;56.878;60.672;2023-10-09T11:35:11;95968.56;;;20.30;31.23
62524;BME280;53689;56.878;60.672;2023-10-09T11:37:40;95975.91;;;20.34;29.82
62524;BME280;53689;56.878;60.672;2023-10-09T11:40:27;95972.09;;;20.30;28.73
62524;BME280;53689;56.878;60.672;2023-10-09T11:43:00;95984.94;;;20.28;28.57
62524;BME280;53689;56.878;60.672;2023-10-09T11:45:29;95984.00;;;20.74;31.86
62524;BME280;53689;56.878;60.672;2023-10-09T11:48:15;95985.88;;;20.73;29.51
62524;BME280;53689;56.878;60.672;2023-10-09T11:50:46;95981.16;;;21.03;29.57
62524;BME280;53689;56.878;60.672;2023-10-09T11:53:13;95982.22;;;21.02;30.32
62524;BME280;53689;56.878;60.672;2023-10-09T11:55:43;95989.97;;;21.15;29.59
62524;BME280;53689;56.878;60.672;2023-10-09T11:58:11;96003.13;;;20.95;30.56
62524;BME280;53689;56.878;60.672;2023-10-09T12:00:39;95995.69;;;21.02;29.47
62524;BME280;53689;56.878;60.672;2023-10-09T12:03:07;96013.84;;;21.12;29.66
62524;BME280;53689;56.878;60.672;2023-10-09T12:05:34;96004.00;;;21.45;29.84
62524;BME280;53689;56.878;60.672;2023-10-09T12:08:02;96008.00;;;21.42;30.15
62524;BME280;53689;56.878;60.672;2023-10-09T12:10:31;96006.16;;;21.43;30.23
62524;BME280;53689;56.878;60.672;2023-10-09T12:13:00;96024.59;;;21.34;31.17
62524;BME280;53689;56.878;60.672;2023-10-09T12:15:28;96010.66;;;21.59;29.57
62524;BME280;53689;56.878;60.672;2023-10-09T12:17:56;96019.91;;;21.24;30.24
62524;BME280;53689;56.878;60.672;2023-10-09T12:20:24;96025.22;;;21.41;29.87
62524;BME280;53689;56.878;60.672;2023-10-09T12:22:52;96012.22;;;21.33;30.29
62524;BME280;53689;56.878;60.672;2023-10-09T12:25:19;96014.72;;;21.17;29.09
62524;BME280;53689;56.878;60.672;2023-10-09T12:27:47;96020.75;;;21.25;30.31
62524;BME280;53689;56.878;60.672;2023-10-09T12:30:17;96024.00;;;21.27;31.82
62524;BME280;53689;56.878;60.672;2023-10-09T12:32:45;96016.72;;;21.27;31.11
62524;BME280;53689;56.878;60.672;2023-10-09T12:35:13;96022.41;;;21.31;30.04
62524;BME280;53689;56.878;60.672;2023-10-09T12:37:41;96025.41;;;21.34;30.05
62524;BME280;53689;56.878;60.672;2023-10-09T12:40:09;96034.50;;;21.28;29.95
62524;BME280;53689;56.878;60.672;2023-10-09T12:42:37;96029.75;;;21.35;29.61
62524;BME280;53689;56.878;60.672;2023-10-09T12:45:06;96035.69;;;21.60;28.00
62524;BME280;53689;56.878;60.672;2023-10-09T12:47:35;96036.81;;;21.42;29.87
62524;BME280;53689;56.878;60.672;2023-10-09T12:50:04;96042.00;;;21.48;29.66
62524;BME280;53689;56.878;60.672;2023-10-09T12:52:32;96043.00;;;21.42;30.56
62524;BME280;53689;56.878;60.672;2023-10-09T12:55:01;96055.59;;;21.37;29.58
62524;BME280;53689;56.878;60.672;2023-10-09T12:57:29;96064.69;;;21.30;30.42
62524;BME280;53689;56.878;60.672;2023-10-09T12:59:57;96059.81;;;21.72;30.22
62524;BME280;53689;56.878;60.672;2023-10-09T13:02:25;96066.03;;;21.72;29.94
62524;BME280;53689;56.878;60.672;2023-10-09T13:04:55;96070.38;;;21.79;28.87
62524;BME280;53689;56.878;60.672;2023-10-09T13:07:24;96069.91;;;21.82;27.57